Time;durP1;ratioP1;P1;durP2;ratioP2;P2;SDS_P1;SDS_P2;PMS_P1;PMS_P2;Temp;Humidity;BMP_temperature;BMP_pressure;BME280_temperature;BME280_humidity;BME280_pressure;Samples;Min_cycle;Max_cycle;Signal;HPM_P1;HPM_P2
2022/07/05 00:01:00;;;;;;;0.80;0.80;;;19.00;91.10;;;;;;4181701;28;20231;-78
2022/07/05 00:03:02;;;;;;;1.50;1.10;;;18.90;91.50;;;;;;4181237;28;20220;-77
2022/07/05 00:05:04;;;;;;;1.33;0.90;;;18.90;91.70;;;;;;4181922;28;20212;-77
2022/07/05 00:07:19;;;;;;;1.17;0.70;;;18.90;92.60;;;;;;4189617;28;20281;-77
2022/07/05 00:09:21;;;;;;;1.33;0.97;;;18.80;92.00;;;;;;4193424;28;20268;-77
2022/07/05 00:11:23;;;;;;;1.67;0.90;;;18.80;92.40;;;;;;4183681;28;20206;-78
2022/07/05 00:13:25;;;;;;;2.23;0.80;;;18.80;92.20;;;;;;4189593;28;20274;-77
2022/07/05 00:15:27;;;;;;;2.00;1.07;;;18.80;93.60;;;;;;4187340;28;20200;-77
2022/07/05 00:17:29;;;;;;;1.77;1.00;;;18.70;93.60;;;;;;4172260;28;20257;-78
2022/07/05 00:19:32;;;;;;;1.20;0.97;;;18.70;94.00;;;;;;4189116;28;20212;-77
2022/07/05 00:21:34;;;;;;;1.63;0.90;;;18.70;94.50;;;;;;4185147;28;20710;-77
2022/07/05 00:23:37;;;;;;;1.00;0.90;;;18.60;95.30;;;;;;4184163;28;20231;-78
2022/07/05 00:25:39;;;;;;;1.27;0.97;;;18.60;95.50;;;;;;4182408;28;20211;-77
2022/07/05 00:27:41;;;;;;;1.83;1.20;;;18.50;95.50;;;;;;4179306;28;20287;-77
2022/07/05 00:29:43;;;;;;;0.97;0.87;;;18.50;96.10;;;;;;4190150;28;20242;-77
2022/07/05 00:31:44;;;;;;;2.20;1.10;;;18.50;96.30;;;;;;4184506;28;20581;-77
2022/07/05 00:33:46;;;;;;;1.73;1.03;;;18.40;96.00;;;;;;4184057;28;20234;-78
2022/07/05 00:35:48;;;;;;;1.73;0.93;;;18.40;96.50;;;;;;4184525;28;20308;-77
2022/07/05 00:37:50;;;;;;;1.17;1.00;;;18.30;96.10;;;;;;4188061;28;20230;-77
2022/07/05 00:39:53;;;;;;;1.90;1.20;;;18.30;96.30;;;;;;4188627;28;20582;-78
2022/07/05 00:41:55;;;;;;;2.53;1.07;;;18.30;96.50;;;;;;4188613;28;20228;-77
2022/07/05 00:43:59;;;;;;;1.17;1.07;;;18.30;97.20;;;;;;4189102;28;20676;-78
2022/07/05 00:46:01;;;;;;;1.83;1.10;;;18.30;98.20;;;;;;4184802;28;20582;-78
2022/07/05 00:48:03;;;;;;;1.10;1.00;;;18.20;99.20;;;;;;4186408;28;20209;-77
2022/07/05 00:50:06;;;;;;;2.83;1.10;;;18.20;99.80;;;;;;4188730;28;20310;-78
2022/07/05 00:52:08;;;;;;;2.20;0.97;;;18.10;99.90;;;;;;4185401;28;20321;-77
2022/07/05 00:54:10;;;;;;;1.43;0.90;;;18.10;99.90;;;;;;4180066;28;20330;-77
2022/07/05 00:56:14;;;;;;;2.30;1.00;;;18.00;99.90;;;;;;4181464;28;20217;-77
2022/07/05 00:58:16;;;;;;;0.80;0.80;;;17.90;99.90;;;;;;4182567;28;20258;-77
2022/07/05 01:00:19;;;;;;;0.87;0.83;;;17.90;99.90;;;;;;4187052;28;20242;-77
2022/07/05 01:02:23;;;;;;;0.93;0.73;;;17.80;99.90;;;;;;4183135;28;20511;-77
2022/07/05 01:04:25;;;;;;;2.50;1.07;;;17.70;99.90;;;;;;4181827;28;20766;-77
2022/07/05 01:06:27;;;;;;;1.40;0.80;;;17.70;99.90;;;;;;4186382;28;20206;-77
2022/07/05 01:08:29;;;;;;;1.80;0.80;;;17.60;99.90;;;;;;4184951;28;20206;-78
2022/07/05 01:10:32;;;;;;;1.83;0.80;;;17.60;99.90;;;;;;4188035;28;20206;-78
2022/07/05 01:12:35;;;;;;;0.70;0.70;;;17.50;99.90;;;;;;4188940;28;20202;-77
2022/07/05 01:14:37;;;;;;;0.73;0.70;;;17.40;99.90;;;;;;4183072;28;20306;-77
2022/07/05 01:17:30;;;;;;;1.03;0.80;;;17.40;99.90;;;;;;4183288;28;20203;-78
2022/07/05 01:20:22;;;;;;;1.60;0.70;;;17.30;99.90;;;;;;4179000;28;20216;-78
2022/07/05 01:23:15;;;;;;;0.70;0.70;;;17.30;99.90;;;;;;4179103;28;20206;-78
2022/07/05 01:26:07;;;;;;;4.03;0.80;;;17.20;99.90;;;;;;4184130;28;20206;-78
2022/07/05 01:29:00;;;;;;;2.07;0.90;;;17.20;99.90;;;;;;4183842;28;20679;-77
2022/07/05 01:31:53;;;;;;;1.17;0.80;;;17.10;99.90;;;;;;4185465;28;20293;-77
2022/07/05 01:34:45;;;;;;;1.00;0.80;;;17.10;99.90;;;;;;4185451;28;20230;-78
2022/07/05 01:37:37;;;;;;;1.00;0.90;;;17.10;99.40;;;;;;4186304;28;20663;-78
2022/07/05 01:40:29;;;;;;;1.30;0.97;;;17.10;98.60;;;;;;4185423;28;20207;-77
2022/07/05 01:43:21;;;;;;;0.87;0.60;;;17.00;98.40;;;;;;4190999;28;20213;-77
2022/07/05 01:46:14;;;;;;;0.60;0.60;;;17.00;98.80;;;;;;4180206;28;20220;-77
2022/07/05 01:49:06;;;;;;;0.93;0.70;;;16.90;98.70;;;;;;4177190;28;20238;-78
2022/07/05 01:51:58;;;;;;;0.93;0.80;;;16.90;99.40;;;;;;4180702;28;20206;-78
2022/07/05 01:54:51;;;;;;;1.00;0.70;;;16.80;99.00;;;;;;4183623;28;20652;-78
2022/07/05 01:57:43;;;;;;;1.43;0.70;;;16.80;98.60;;;;;;4184287;28;20210;-78
2022/07/05 04:03:56;;;;;;;2.30;1.00;;;15.30;99.90;;;;;;4181137;28;20208;-77
2022/07/05 04:05:58;;;;;;;2.50;1.00;;;15.20;99.90;;;;;;4179279;28;20478;-77
2022/07/05 04:08:00;;;;;;;3.83;1.10;;;15.20;99.90;;;;;;4172289;28;20206;-77
2022/07/05 04:10:02;;;;;;;2.50;1.20;;;15.20;99.90;;;;;;4169705;28;20231;-77
2022/07/05 04:12:04;;;;;;;4.07;1.70;;;15.20;99.90;;;;;;4175635;28;20214;-77
2022/07/05 04:14:08;;;;;;;2.90;1.80;;;15.20;99.90;;;;;;4184269;28;20223;-77
2022/07/05 04:16:11;;;;;;;4.37;2.00;;;15.10;99.90;;;;;;4185757;28;20689;-77
2022/07/05 04:18:12;;;;;;;1.63;1.43;;;15.10;99.90;;;;;;4179495;28;20311;-77
2022/07/05 04:20:16;;;;;;;1.73;1.40;;;15.10;99.90;;;;;;4183754;28;20207;-78
2022/07/05 04:22:18;;;;;;;2.83;1.50;;;15.20;99.90;;;;;;4162441;28;20290;-77
2022/07/05 04:24:20;;;;;;;1.67;1.40;;;15.10;99.90;;;;;;4178908;28;20741;-76
2022/07/05 04:26:22;;;;;;;1.80;1.40;;;15.10;99.90;;;;;;4185101;28;20281;-77
2022/07/05 04:28:24;;;;;;;2.37;1.37;;;15.10;99.90;;;;;;4184009;28;20300;-77
2022/07/05 04:30:26;;;;;;;1.30;1.20;;;15.10;99.90;;;;;;4170266;28;20208;-77
2022/07/05 04:32:28;;;;;;;1.97;1.30;;;15.10;99.90;;;;;;4190387;28;20672;-76
2022/07/05 04:34:30;;;;;;;2.83;1.53;;;15.10;99.90;;;;;;4180178;28;20222;-77
2022/07/05 04:36:33;;;;;;;3.57;1.40;;;15.10;99.90;;;;;;4159782;28;20613;-77
2022/07/05 04:38:36;;;;;;;4.33;1.90;;;15.10;99.90;;;;;;4186053;28;20234;-77
2022/07/05 04:40:40;;;;;;;3.57;1.90;;;15.10;99.90;;;;;;4164500;28;20319;-77
2022/07/05 04:42:43;;;;;;;4.60;2.00;;;15.10;99.90;;;;;;4183639;28;20198;-77
2022/07/05 04:44:45;;;;;;;4.57;2.43;;;15.10;99.90;;;;;;4182961;28;20669;-77
2022/07/05 04:46:47;;;;;;;3.10;1.73;;;15.10;99.90;;;;;;4183632;28;20694;-77
2022/07/05 04:48:49;;;;;;;3.37;2.00;;;15.10;99.90;;;;;;4182584;28;20234;-77
2022/07/05 04:50:50;;;;;;;2.97;1.80;;;15.10;99.90;;;;;;4192342;28;20565;-77
2022/07/05 04:52:54;;;;;;;3.77;1.80;;;15.10;99.90;;;;;;4185366;28;20238;-77
2022/07/05 04:54:56;;;;;;;3.53;1.87;;;15.10;99.90;;;;;;4161452;28;20215;-77
2022/07/05 04:56:58;;;;;;;4.30;1.90;;;15.10;99.90;;;;;;4187446;28;20222;-77
2022/07/05 04:58:59;;;;;;;2.40;1.60;;;15.20;99.90;;;;;;4189847;28;20223;-77
2022/07/05 05:01:01;;;;;;;2.97;1.50;;;15.20;99.90;;;;;;4188215;28;20199;-77
2022/07/05 05:03:03;;;;;;;2.30;1.27;;;15.20;99.90;;;;;;4185288;28;20597;-78
2022/07/05 05:05:06;;;;;;;2.67;1.40;;;15.20;99.90;;;;;;4185332;28;20211;-77
2022/07/05 05:07:08;;;;;;;2.77;1.40;;;15.20;99.90;;;;;;4184270;28;20716;-78
2022/07/05 05:09:14;;;;;;;1.77;1.30;;;15.20;99.90;;;;;;4185814;28;20287;-77
2022/07/05 05:11:16;;;;;;;3.40;1.60;;;15.30;99.90;;;;;;4186696;28;20202;-76
2022/07/05 05:13:18;;;;;;;2.57;1.80;;;15.30;99.90;;;;;;4184460;22;20270;-73
2022/07/05 05:15:20;;;;;;;3.37;1.90;;;15.30;99.90;;;;;;4209663;28;20206;-76
2022/07/05 05:17:22;;;;;;;3.03;1.50;;;15.30;99.90;;;;;;4203718;28;20208;-77
2022/07/05 05:19:24;;;;;;;4.10;1.70;;;15.30;99.90;;;;;;4194387;28;20227;-78
2022/07/05 05:21:26;;;;;;;2.60;1.83;;;15.40;99.90;;;;;;4209799;28;20210;-79
2022/07/05 05:23:28;;;;;;;3.40;1.80;;;15.40;99.90;;;;;;4192635;28;20237;-76
2022/07/05 05:25:31;;;;;;;3.33;1.50;;;15.40;99.90;;;;;;4204729;28;20207;-77
2022/07/05 05:27:33;;;;;;;2.60;1.80;;;15.50;99.90;;;;;;4204931;28;20211;-76
2022/07/05 05:29:35;;;;;;;2.43;1.77;;;15.50;99.90;;;;;;4202968;28;20294;-76
2022/07/05 05:31:37;;;;;;;4.60;2.10;;;15.50;99.90;;;;;;4204474;28;21056;-77
2022/07/05 05:33:39;;;;;;;4.53;1.83;;;15.50;99.90;;;;;;4208168;28;20219;-77
2022/07/05 05:35:41;;;;;;;5.17;2.60;;;15.50;99.90;;;;;;4207731;28;20203;-76
2022/07/05 05:37:47;;;;;;;5.07;2.67;;;15.50;99.90;;;;;;4206573;28;20204;-75
2022/07/05 05:39:49;;;;;;;3.23;2.10;;;15.60;99.90;;;;;;4205661;28;20239;-76
2022/07/05 05:41:52;;;;;;;4.43;2.10;;;15.60;99.90;;;;;;4200624;28;20206;-75
2022/07/05 05:43:55;;;;;;;4.13;2.10;;;15.60;99.90;;;;;;4198089;28;20235;-76
2022/07/05 05:45:57;;;;;;;4.87;2.00;;;15.60;99.90;;;;;;4199710;28;20204;-75
2022/07/05 05:48:00;;;;;;;3.03;1.90;;;15.60;99.90;;;;;;4184879;28;20219;-75
2022/07/05 05:50:06;;;;;;;4.90;2.10;;;15.70;99.90;;;;;;4189283;28;20201;-75
2022/07/05 05:52:08;;;;;;;2.73;1.90;;;15.70;99.90;;;;;;4209056;28;20257;-76
2022/07/05 05:54:10;;;;;;;3.90;2.20;;;15.70;99.90;;;;;;4203809;28;20285;-75
2022/07/05 05:56:12;;;;;;;1.97;1.60;;;15.70;99.90;;;;;;4206963;28;20591;-75
2022/07/05 05:58:18;;;;;;;3.50;1.70;;;15.70;99.90;;;;;;4205284;28;20241;-76
2022/07/05 06:00:21;;;;;;;2.47;1.70;;;15.80;99.90;;;;;;4204708;28;20208;-75
2022/07/05 06:02:23;;;;;;;3.33;1.70;;;15.80;99.90;;;;;;4204539;28;20204;-76
2022/07/05 06:04:25;;;;;;;1.93;1.40;;;15.80;99.90;;;;;;4209254;28;20664;-75
2022/07/05 06:06:27;;;;;;;3.30;2.20;;;15.80;99.90;;;;;;4183656;28;20240;-75
2022/07/05 06:08:29;;;;;;;3.43;1.93;;;15.80;99.90;;;;;;4188537;28;20205;-76
2022/07/05 06:10:32;;;;;;;3.73;1.80;;;15.90;99.90;;;;;;4202564;28;20250;-75
2022/07/05 06:12:34;;;;;;;2.97;1.80;;;16.00;99.90;;;;;;4202834;28;20254;-76
2022/07/05 06:14:37;;;;;;;2.23;1.47;;;16.00;99.90;;;;;;4199641;28;20269;-75
2022/07/05 06:16:39;;;;;;;4.17;1.73;;;16.00;99.90;;;;;;4204579;28;20271;-78
2022/07/05 06:18:42;;;;;;;2.47;1.70;;;16.10;99.90;;;;;;4186605;28;20299;-77
2022/07/05 06:20:43;;;;;;;2.80;1.77;;;16.10;99.90;;;;;;4189468;28;20212;-78
2022/07/05 06:22:46;;;;;;;2.07;1.87;;;16.10;99.90;;;;;;4205172;28;20261;-77
2022/07/05 06:24:48;;;;;;;2.20;1.70;;;16.20;99.90;;;;;;4205352;28;20223;-79
2022/07/05 06:26:50;;;;;;;2.63;1.90;;;16.30;99.90;;;;;;4186144;28;20209;-77
2022/07/05 06:28:52;;;;;;;2.17;1.70;;;16.30;99.90;;;;;;4190218;28;20202;-77
2022/07/05 06:30:55;;;;;;;3.07;1.60;;;16.40;99.90;;;;;;4203858;28;20246;-77
2022/07/05 06:32:57;;;;;;;4.13;1.80;;;16.40;99.90;;;;;;4211763;28;20207;-78
2022/07/05 06:34:59;;;;;;;3.27;1.90;;;16.50;99.90;;;;;;4205774;28;20228;-77
2022/07/05 06:37:01;;;;;;;2.60;1.97;;;16.60;99.90;;;;;;4209415;28;20658;-79
2022/07/05 06:39:03;;;;;;;2.77;1.77;;;16.70;99.90;;;;;;4209844;28;20225;-80
2022/07/05 06:41:05;;;;;;;3.80;2.03;;;16.80;99.90;;;;;;4192439;28;20282;-79
2022/07/05 06:43:11;;;;;;;2.57;1.83;;;16.80;99.90;;;;;;4208525;28;20238;-79
2022/07/05 06:45:13;;;;;;;2.53;1.60;;;16.90;99.90;;;;;;4192590;28;20205;-80
2022/07/05 06:47:18;;;;;;;3.23;1.70;;;17.00;99.90;;;;;;4187690;28;20217;-79
2022/07/05 06:49:20;;;;;;;2.27;1.50;;;17.00;99.90;;;;;;4191968;28;20206;-79
2022/07/05 06:51:22;;;;;;;2.77;1.60;;;17.10;99.90;;;;;;4187933;28;20758;-79
2022/07/05 06:53:24;;;;;;;1.60;1.50;;;17.20;99.90;;;;;;4192973;28;20577;-79
2022/07/05 06:55:27;;;;;;;1.80;1.50;;;17.30;99.90;;;;;;4208858;28;20681;-79
2022/07/05 06:57:29;;;;;;;1.57;1.47;;;17.30;99.90;;;;;;4188174;28;20211;-79
2022/07/05 06:59:32;;;;;;;2.90;1.70;;;17.40;99.90;;;;;;4206867;28;20221;-79
2022/07/05 07:01:34;;;;;;;1.80;1.40;;;17.50;99.90;;;;;;4185262;28;20211;-79
2022/07/05 07:03:38;;;;;;;2.77;1.80;;;17.50;99.90;;;;;;4203540;28;20689;-79
2022/07/05 07:05:40;;;;;;;1.90;1.50;;;17.60;99.90;;;;;;4190663;28;20296;-79
2022/07/05 07:10:03;;;;;;;2.47;1.70;;;17.70;99.90;;;;;;4189598;28;20251;-79
2022/07/05 07:12:06;;;;;;;3.13;1.80;;;17.80;99.90;;;;;;4206990;28;20643;-79
2022/07/05 07:14:08;;;;;;;2.80;1.57;;;17.80;99.90;;;;;;4203675;28;20647;-79
2022/07/05 07:16:10;;;;;;;2.53;1.87;;;17.90;99.90;;;;;;4195788;28;20666;-80
2022/07/05 07:18:15;;;;;;;2.57;1.70;;;17.90;99.90;;;;;;4206351;28;20203;-80
2022/07/05 07:20:19;;;;;;;3.80;1.83;;;18.00;99.90;;;;;;4208486;28;20208;-79
2022/07/05 07:22:21;;;;;;;2.23;2.00;;;18.10;99.90;;;;;;4192052;28;20206;-79
2022/07/05 07:24:23;;;;;;;2.67;1.50;;;18.20;99.90;;;;;;4186636;28;20801;-79
2022/07/05 07:26:25;;;;;;;3.00;1.90;;;18.20;99.90;;;;;;4203715;28;20198;-79
2022/07/05 07:28:28;;;;;;;2.90;1.93;;;18.30;99.90;;;;;;4189077;28;20214;-79
2022/07/05 07:30:30;;;;;;;2.37;1.70;;;18.30;99.90;;;;;;4203467;28;20679;-78
2022/07/05 07:32:32;;;;;;;1.77;1.40;;;18.40;99.90;;;;;;4194217;28;20613;-79
2022/07/05 07:34:34;;;;;;;2.20;1.67;;;18.40;99.90;;;;;;4187388;28;20620;-79
2022/07/05 07:36:38;;;;;;;2.40;1.60;;;18.50;99.90;;;;;;4204494;28;20212;-79
2022/07/05 07:38:40;;;;;;;3.47;1.90;;;18.50;99.90;;;;;;4211872;28;20197;-79
2022/07/05 07:40:42;;;;;;;2.63;1.77;;;18.60;99.90;;;;;;4191522;28;20203;-79
2022/07/05 07:42:44;;;;;;;2.07;1.80;;;18.60;99.90;;;;;;4193801;28;20243;-79
2022/07/05 07:44:46;;;;;;;2.07;1.70;;;18.70;99.90;;;;;;4206342;28;20242;-79
2022/07/05 07:46:49;;;;;;;3.63;1.67;;;18.70;99.90;;;;;;4193779;28;20695;-79
2022/07/05 07:48:51;;;;;;;2.80;1.80;;;18.80;99.90;;;;;;4208933;28;20197;-79
2022/07/05 07:50:53;;;;;;;3.30;1.70;;;18.80;99.90;;;;;;4191155;28;20224;-79
2022/07/05 07:52:56;;;;;;;2.07;1.50;;;18.90;99.90;;;;;;4211178;28;20198;-79
2022/07/05 07:54:58;;;;;;;1.50;1.40;;;18.90;99.90;;;;;;4212152;28;20608;-80
2022/07/05 07:57:01;;;;;;;2.23;1.40;;;19.00;99.90;;;;;;4194291;28;20231;-79
2022/07/05 07:59:03;;;;;;;2.00;1.50;;;19.00;99.90;;;;;;4190296;28;20222;-80
2022/07/05 08:01:10;;;;;;;3.50;1.80;;;19.00;99.90;;;;;;4195122;28;20207;-80
2022/07/05 08:03:12;;;;;;;2.90;1.53;;;19.10;99.90;;;;;;4191220;28;20223;-80
2022/07/05 08:05:14;;;;;;;2.50;1.50;;;19.10;99.90;;;;;;4204627;28;20205;-79
2022/07/05 08:07:17;;;;;;;2.37;1.57;;;19.20;99.90;;;;;;4189676;28;20200;-80
2022/07/05 08:09:20;;;;;;;3.10;1.40;;;19.30;99.90;;;;;;4189724;28;20223;-81
2022/07/05 08:11:23;;;;;;;2.33;1.60;;;19.30;99.90;;;;;;4194477;28;20276;-81
2022/07/05 08:13:25;;;;;;;1.90;1.50;;;19.40;99.90;;;;;;4209380;28;20708;-81
2022/07/05 08:15:27;;;;;;;3.17;1.33;;;19.40;99.90;;;;;;4194865;28;20217;-80
2022/07/05 08:17:29;;;;;;;1.33;1.20;;;19.50;99.90;;;;;;4210772;28;20707;-81
2022/07/05 08:21:49;;;;;;;3.37;1.57;;;19.60;99.90;;;;;;4187360;28;20201;-79
2022/07/05 08:23:51;;;;;;;4.07;1.57;;;19.60;99.90;;;;;;4189411;28;20278;-79
2022/07/05 08:25:54;;;;;;;2.10;1.43;;;19.70;99.90;;;;;;4204990;28;20220;-80
2022/07/05 08:27:56;;;;;;;3.17;1.20;;;19.80;99.90;;;;;;4205193;28;20651;-79
2022/07/05 08:29:58;;;;;;;1.87;1.40;;;19.80;99.90;;;;;;4189071;28;20630;-79
2022/07/05 08:32:00;;;;;;;2.70;1.50;;;19.90;99.90;;;;;;4205394;28;20626;-78
2022/07/05 08:34:03;;;;;;;3.37;1.50;;;20.00;99.90;;;;;;4207892;28;20580;-79
2022/07/05 08:36:06;;;;;;;3.50;1.37;;;20.10;99.90;;;;;;4206439;28;20213;-80
2022/07/05 08:38:08;;;;;;;3.20;1.30;;;20.00;99.90;;;;;;4187567;28;20218;-79
2022/07/05 08:40:11;;;;;;;1.73;1.30;;;20.10;99.90;;;;;;4192154;28;20302;-80
2022/07/05 08:42:15;;;;;;;2.37;1.50;;;20.20;99.90;;;;;;4207611;28;20211;-81
2022/07/05 08:44:20;;;;;;;2.83;1.40;;;20.30;99.90;;;;;;4202667;28;20247;-80
2022/07/05 08:46:23;;;;;;;1.47;1.27;;;20.40;99.90;;;;;;4208714;28;20218;-80
2022/07/05 08:48:27;;;;;;;2.23;1.20;;;20.40;99.90;;;;;;4196222;28;20208;-79
2022/07/05 08:50:31;;;;;;;2.40;1.30;;;20.50;99.90;;;;;;4190219;28;20217;-79
2022/07/05 08:52:34;;;;;;;1.50;1.30;;;20.50;99.90;;;;;;4188296;28;20299;-80
2022/07/05 08:54:38;;;;;;;2.30;1.30;;;20.60;99.90;;;;;;4203504;28;20232;-81
2022/07/05 08:56:42;;;;;;;2.23;1.30;;;20.70;99.90;;;;;;4205138;28;20295;-81
2022/07/05 08:58:46;;;;;;;1.40;1.03;;;20.70;99.90;;;;;;4205729;28;20209;-79
2022/07/05 09:00:48;;;;;;;1.67;1.30;;;20.80;99.90;;;;;;4204649;28;20245;-80
2022/07/05 09:02:52;;;;;;;1.13;1.03;;;20.80;99.90;;;;;;4210013;28;20212;-81
2022/07/05 09:04:56;;;;;;;2.00;1.20;;;20.90;99.90;;;;;;4192042;28;20244;-80
2022/07/05 09:07:04;;;;;;;1.83;1.40;;;21.00;99.90;;;;;;4208175;28;20208;-80
2022/07/05 09:09:07;;;;;;;2.47;1.30;;;21.10;93.00;;;;;;4208375;28;20228;-80
2022/07/05 09:11:11;;;;;;;1.53;1.30;;;21.20;99.00;;;;;;4209401;28;20205;-80
2022/07/05 09:13:13;;;;;;;1.87;1.10;;;21.30;97.10;;;;;;4201350;28;20287;-80
2022/07/05 09:15:17;;;;;;;2.10;1.23;;;21.40;99.90;;;;;;4200036;28;20196;-80
2022/07/05 09:17:19;;;;;;;2.10;1.30;;;21.50;99.90;;;;;;4185029;28;20497;-80
2022/07/05 09:19:23;;;;;;;2.10;1.50;;;21.70;99.10;;;;;;4210608;28;20255;-80
2022/07/05 09:21:26;;;;;;;1.83;1.20;;;21.80;96.20;;;;;;4210135;28;20209;-80
2022/07/05 09:23:30;;;;;;;2.20;1.27;;;21.90;94.30;;;;;;4211719;28;20233;-80
2022/07/05 09:25:33;;;;;;;1.73;1.30;;;22.10;91.60;;;;;;4195697;28;20301;-80
2022/07/05 09:27:51;;;;;;;1.40;1.30;;;22.30;90.60;;;;;;4193339;28;20208;-80
2022/07/05 09:29:58;;;;;;;1.87;1.23;;;22.40;84.00;;;;;;4189902;28;20218;-79
2022/07/05 09:32:05;;;;;;;1.83;1.13;;;22.50;86.90;;;;;;4191340;28;20216;-80
2022/07/05 09:34:08;;;;;;;2.53;1.37;;;22.70;80.00;;;;;;4191519;28;20266;-79
2022/07/05 09:36:10;;;;;;;1.90;1.10;;;22.70;79.10;;;;;;4190293;28;20237;-80
2022/07/05 09:38:19;;;;;;;2.37;1.37;;;22.80;81.90;;;;;;4186539;28;20227;-80
2022/07/05 09:40:21;;;;;;;1.60;1.10;;;22.90;84.00;;;;;;4203825;28;20208;-80
2022/07/05 09:42:24;;;;;;;1.60;1.10;;;23.00;85.90;;;;;;4193916;28;20204;-81
2022/07/05 09:44:27;;;;;;;1.47;1.13;;;23.00;86.60;;;;;;4205704;28;20225;-81
2022/07/05 09:46:31;;;;;;;1.30;1.17;;;23.10;71.30;;;;;;4209614;28;20216;-84
2022/07/05 09:48:36;;;;;;;1.93;1.20;;;23.10;68.50;;;;;;4195410;28;20225;-80
2022/07/05 09:50:38;;;;;;;2.10;1.23;;;23.10;70.30;;;;;;4196419;28;20201;-79
2022/07/05 09:52:42;;;;;;;2.57;1.30;;;23.20;74.30;;;;;;4212452;28;20290;-80
2022/07/05 09:55:01;;;;;;;1.47;1.03;;;23.30;74.70;;;;;;4213441;28;20297;-80
2022/07/05 09:57:05;;;;;;;1.97;1.20;;;23.30;72.60;;;;;;4205033;28;20714;-79
2022/07/05 09:59:19;;;;;;;1.50;1.13;;;23.50;68.60;;;;;;4191697;28;20223;-82
2022/07/05 10:01:28;;;;;;;1.30;1.00;;;23.60;68.70;;;;;;4188014;28;20210;-83
2022/07/05 10:03:30;;;;;;;1.73;1.17;;;23.60;62.40;;;;;;4192426;28;20225;-80
2022/07/05 10:05:33;;;;;;;1.70;1.40;;;23.80;60.40;;;;;;4192102;28;20218;-80
2022/07/05 10:07:37;;;;;;;2.37;1.10;;;23.90;57.00;;;;;;4191836;28;20214;-81
2022/07/05 10:09:39;;;;;;;2.20;1.00;;;24.00;53.10;;;;;;4201507;28;20232;-80
2022/07/05 10:11:45;;;;;;;4.60;1.30;;;24.10;51.10;;;;;;4205959;28;20262;-77
2022/07/05 10:13:49;;;;;;;1.83;1.10;;;24.20;49.60;;;;;;4186347;28;20746;-78
2022/07/05 10:15:51;;;;;;;0.93;0.90;;;24.30;50.00;;;;;;4190237;28;20256;-77
2022/07/05 10:17:56;;;;;;;1.20;1.10;;;24.30;49.70;;;;;;4203396;28;20247;-77
2022/07/05 10:19:59;;;;;;;1.27;1.00;;;24.40;49.00;;;;;;4206301;28;20638;-77
2022/07/05 10:22:03;;;;;;;2.17;1.30;;;24.50;50.30;;;;;;4208016;28;20209;-77
2022/07/05 10:24:05;;;;;;;1.13;0.93;;;24.60;48.90;;;;;;4207946;28;20257;-77
2022/07/05 10:26:10;;;;;;;2.27;1.10;;;24.60;49.50;;;;;;4203404;28;20228;-77
2022/07/05 10:28:12;;;;;;;1.03;0.97;;;24.70;50.40;;;;;;4204883;28;20204;-77
2022/07/05 10:30:15;;;;;;;1.60;1.07;;;24.70;49.70;;;;;;4200616;28;20194;-77
2022/07/05 10:32:19;;;;;;;2.03;1.03;;;24.70;49.10;;;;;;4203736;28;20205;-78
2022/07/05 10:34:21;;;;;;;1.50;0.93;;;24.70;47.80;;;;;;4204634;28;20228;-78
2022/07/05 10:36:24;;;;;;;1.57;1.00;;;24.70;46.90;;;;;;4187932;28;20232;-77
2022/07/05 10:38:27;;;;;;;1.77;1.10;;;24.80;48.40;;;;;;4199476;28;20240;-77
2022/07/05 10:40:31;;;;;;;1.50;1.10;;;24.90;48.20;;;;;;4206158;28;20224;-76
2022/07/05 10:42:42;;;;;;;1.07;0.90;;;25.00;48.30;;;;;;4204178;28;20217;-77
2022/07/05 10:44:44;;;;;;;1.10;0.90;;;25.20;47.00;;;;;;4186131;28;20248;-77
2022/07/05 10:46:46;;;;;;;2.63;1.20;;;25.20;43.10;;;;;;4204898;28;20311;-77
2022/07/05 10:49:12;;;;;;;1.87;1.10;;;25.20;43.40;;;;;;4205287;28;20339;-77
2022/07/05 10:51:17;;;;;;;2.70;1.00;;;25.30;44.00;;;;;;4201520;28;20197;-78
2022/07/05 10:53:21;;;;;;;1.60;0.93;;;25.20;40.60;;;;;;4204918;28;20279;-78
2022/07/05 10:55:24;;;;;;;1.40;1.00;;;25.30;42.20;;;;;;4198904;28;20289;-77
2022/07/05 10:57:28;;;;;;;3.00;1.00;;;25.30;43.90;;;;;;4207539;28;20239;-77
2022/07/05 10:59:29;;;;;;;1.50;1.10;;;25.40;42.80;;;;;;4203351;28;20215;-77
2022/07/05 11:01:41;;;;;;;2.63;1.40;;;25.50;41.00;;;;;;4206816;28;20686;-77
2022/07/05 11:03:45;;;;;;;1.33;0.90;;;25.60;41.60;;;;;;4184755;28;20592;-76
2022/07/05 11:05:47;;;;;;;1.67;0.97;;;25.60;40.40;;;;;;4184234;28;20253;-76
2022/07/05 11:07:59;;;;;;;2.13;1.07;;;25.60;40.30;;;;;;4202500;28;20205;-76
2022/07/05 11:10:03;;;;;;;1.93;1.10;;;25.60;40.60;;;;;;4203596;28;20198;-76
2022/07/05 11:12:08;;;;;;;1.87;1.07;;;25.60;38.20;;;;;;4204641;28;20300;-76
2022/07/05 11:14:32;;;;;;;1.53;0.90;;;25.70;39.00;;;;;;4214171;22;20233;-78
2022/07/05 11:16:36;;;;;;;1.30;1.00;;;25.80;38.80;;;;;;4194745;28;20696;-77
2022/07/05 11:18:38;;;;;;;1.37;0.90;;;25.90;37.90;;;;;;4195388;28;20205;-77
2022/07/05 11:20:40;;;;;;;1.20;0.87;;;26.00;37.80;;;;;;4192716;28;20278;-77
2022/07/05 11:22:58;;;;;;;1.77;1.00;;;26.10;39.00;;;;;;4191591;28;20678;-79
2022/07/05 11:25:01;;;;;;;2.30;0.90;;;26.30;39.40;;;;;;4193155;28;20601;-77
2022/07/05 11:27:10;;;;;;;1.90;1.03;;;26.50;39.50;;;;;;4188009;28;20198;-78
2022/07/05 11:29:43;;;;;;;2.30;0.90;;;26.70;40.30;;;;;;4190125;28;20197;-79
2022/07/05 11:31:45;;;;;;;1.63;0.90;;;26.90;38.40;;;;;;4192001;28;20224;-78
2022/07/05 11:33:50;;;;;;;1.20;0.90;;;27.00;38.30;;;;;;4191521;28;20641;-79
2022/07/05 11:35:52;;;;;;;2.63;1.00;;;27.10;38.80;;;;;;4173260;28;20234;-78
2022/07/05 11:38:03;;;;;;;1.20;1.10;;;27.20;39.40;;;;;;4193740;28;20198;-78
2022/07/05 11:40:28;;;;;;;1.53;1.00;;;27.20;38.00;;;;;;4171576;28;20245;-79
2022/07/05 11:42:30;;;;;;;1.60;0.90;;;27.30;37.30;;;;;;4190942;28;20633;-79
2022/07/05 11:44:33;;;;;;;2.83;1.00;;;27.30;37.20;;;;;;4188637;28;20230;-79
2022/07/05 11:46:41;;;;;;;2.40;1.00;;;27.40;36.70;;;;;;4189457;28;20220;-78
2022/07/05 11:48:49;;;;;;;5.03;1.00;;;27.30;34.20;;;;;;4165816;28;20240;-80
2022/07/05 11:50:51;;;;;;;2.10;0.77;;;27.40;34.80;;;;;;4188265;28;20687;-80
2022/07/05 11:52:53;;;;;;;1.00;0.90;;;27.60;35.00;;;;;;4174122;28;20225;-80
2022/07/05 11:54:56;;;;;;;3.33;0.90;;;27.80;35.20;;;;;;4185468;28;20288;-80
2022/07/05 11:57:00;;;;;;;1.70;0.80;;;28.00;34.80;;;;;;4168191;28;20270;-80
2022/07/05 11:59:17;;;;;;;1.88;0.80;;;28.30;34.80;;;;;;4192263;28;20288;-80
2022/07/05 12:01:19;;;;;;;3.08;1.10;;;28.70;34.40;;;;;;4194086;28;20275;-81
2022/07/05 12:03:23;;;;;;;2.20;1.00;;;29.00;32.80;;;;;;4189840;28;20229;-80
2022/07/05 12:05:30;;;;;;;2.88;0.98;;;29.30;30.70;;;;;;4199406;28;20227;-80
2022/07/05 12:07:33;;;;;;;4.85;0.90;;;29.70;30.90;;;;;;4196794;28;20205;-78
2022/07/05 12:14:21;;;;;;;1.83;0.80;;;30.10;29.50;;;;;;4186485;28;20248;-79
2022/07/05 12:16:25;;;;;;;0.82;0.80;;;30.10;29.60;;;;;;4171808;28;20194;-81
2022/07/05 12:18:29;;;;;;;6.10;0.93;;;30.30;29.20;;;;;;4192530;28;20266;-80
2022/07/05 12:20:33;;;;;;;3.92;0.85;;;30.40;29.30;;;;;;4189676;28;20210;-79
2022/07/05 12:22:37;;;;;;;3.03;0.90;;;30.70;29.20;;;;;;4169913;28;20207;-79
2022/07/05 12:24:40;;;;;;;2.35;0.80;;;30.80;28.40;;;;;;4194744;28;20218;-80
2022/07/05 12:26:42;;;;;;;2.03;0.98;;;30.80;28.30;;;;;;4197096;28;20242;-80
2022/07/05 12:28:44;;;;;;;1.40;0.80;;;31.20;29.00;;;;;;4194040;28;20236;-79
2022/07/05 12:30:46;;;;;;;1.55;0.98;;;31.40;28.80;;;;;;4177370;28;20672;-80
2022/07/05 12:32:56;;;;;;;0.70;0.70;;;31.70;28.50;;;;;;4190316;28;20202;-79
2022/07/05 12:35:02;;;;;;;1.45;0.80;;;32.20;28.50;;;;;;4194513;28;20224;-79
2022/07/05 12:37:05;;;;;;;3.33;0.90;;;32.40;28.50;;;;;;4174610;28;20199;-79
2022/07/05 12:39:07;;;;;;;1.20;0.90;;;32.90;28.10;;;;;;4187818;28;20206;-80
2022/07/05 12:41:09;;;;;;;2.47;0.80;;;33.30;27.50;;;;;;4190528;28;20222;-80
2022/07/05 12:43:12;;;;;;;1.30;0.80;;;33.40;26.40;;;;;;4190145;28;20202;-80
2022/07/05 12:45:16;;;;;;;1.65;0.90;;;33.40;26.70;;;;;;4193221;28;20256;-80
2022/07/05 12:47:17;;;;;;;3.88;1.10;;;33.50;26.80;;;;;;4189154;28;20294;-79
2022/07/05 12:49:20;;;;;;;3.00;0.80;;;33.50;26.40;;;;;;4169896;28;20723;-80
2022/07/05 12:51:37;;;;;;;1.23;0.75;;;33.60;27.10;;;;;;4186648;28;20297;-80
2022/07/05 12:58:29;;;;;;;1.80;0.75;;;33.70;26.10;;;;;;4170235;28;20203;-78
2022/07/05 13:00:31;;;;;;;1.75;0.85;;;33.90;26.10;;;;;;4191418;28;20213;-78
2022/07/05 13:02:37;;;;;;;2.80;1.02;;;34.10;26.00;;;;;;4171136;28;20206;-79
2022/07/05 13:04:53;;;;;;;2.38;0.80;;;34.00;25.30;;;;;;4192389;28;20237;-79
2022/07/05 13:06:57;;;;;;;1.35;0.80;;;34.10;26.40;;;;;;4189194;28;20210;-79
2022/07/05 13:08:59;;;;;;;1.15;0.70;;;34.20;26.30;;;;;;4193914;28;20212;-78
2022/07/05 13:11:01;;;;;;;1.45;0.80;;;34.40;25.40;;;;;;4178378;28;20739;-79
2022/07/05 13:13:03;;;;;;;2.40;0.85;;;34.50;25.40;;;;;;4183018;28;20195;-79
2022/07/05 13:15:06;;;;;;;3.10;0.90;;;34.60;25.20;;;;;;4193580;28;20347;-78